createdAt,value
2019-05-06T00:00:25.349Z,4.53
2019-05-06T00:02:54.663Z,4.53
2019-05-06T00:05:25.395Z,4.72
2019-05-06T00:07:54.731Z,4.83
2019-05-06T00:10:28.651Z,4.10
2019-05-06T00:12:57.540Z,5.00
2019-05-06T00:15:26.416Z,4.92
2019-05-06T00:17:55.127Z,4.00
2019-05-06T00:20:24.382Z,4.60
2019-05-06T00:22:54.904Z,4.15
2019-05-06T00:25:38.010Z,4.85
2019-05-06T00:28:25.235Z,4.12
2019-05-06T00:31:08.642Z,4.57
2019-05-06T00:33:26.064Z,4.92
2019-05-06T00:35:54.876Z,5.20
2019-05-06T00:38:24.633Z,4.50
2019-05-06T00:40:58.157Z,4.47
2019-05-06T00:43:27.074Z,5.35
2019-05-06T00:45:55.919Z,4.53
2019-05-06T00:48:24.647Z,4.80
2019-05-06T00:50:53.668Z,4.42
2019-05-06T00:53:26.904Z,4.85
2019-05-06T00:55:55.620Z,5.08
2019-05-06T00:58:24.622Z,5.22
2019-05-06T01:00:54.038Z,4.87
2019-05-06T01:03:23.927Z,5.37
2019-05-06T01:05:54.159Z,4.12
2019-05-06T01:08:24.054Z,4.10
2019-05-06T01:10:54.431Z,4.95
2019-05-06T01:13:28.074Z,5.08
2019-05-06T01:15:56.798Z,4.75
2019-05-06T01:18:25.731Z,4.78
2019-05-06T01:20:56.125Z,5.65
2019-05-06T01:23:24.836Z,5.08
2019-05-06T01:25:54.564Z,5.20
2019-05-06T01:28:24.498Z,5.75
2019-05-06T01:30:53.637Z,5.12
2019-05-06T01:33:24.173Z,5.37
2019-05-06T01:35:54.181Z,5.72
2019-05-06T01:38:30.467Z,5.12
2019-05-06T01:41:00.797Z,5.33
2019-05-06T01:43:37.209Z,4.67
2019-05-06T01:46:05.923Z,5.90
2019-05-06T01:48:50.288Z,4.90
2019-05-06T01:51:20.172Z,4.70
2019-05-06T01:53:50.043Z,5.30
2019-05-06T01:56:19.939Z,5.22
2019-05-06T01:58:48.660Z,4.90
2019-05-06T02:01:17.478Z,5.20
2019-05-06T02:03:46.375Z,5.08
2019-05-06T02:06:15.095Z,5.00
2019-05-06T02:08:44.952Z,5.35
2019-05-06T02:11:14.890Z,4.65
2019-05-06T02:13:44.404Z,5.00
2019-05-06T02:16:14.625Z,5.15
2019-05-06T02:18:44.854Z,6.08
2019-05-06T02:21:18.134Z,5.53
2019-05-06T02:23:48.420Z,5.30
2019-05-06T02:26:18.178Z,4.87
2019-05-06T02:28:48.569Z,5.10
2019-05-06T02:31:35.548Z,4.87
2019-05-06T02:34:08.637Z,4.27
2019-05-06T02:36:55.426Z,5.40
2019-05-06T02:39:24.472Z,4.70
2019-05-06T02:41:54.962Z,4.58
2019-05-06T02:44:24.166Z,4.12
2019-05-06T02:46:54.556Z,5.20
2019-05-06T02:49:27.890Z,4.27
2019-05-06T02:51:56.909Z,4.75
2019-05-06T02:54:25.779Z,5.08
2019-05-06T02:56:54.558Z,4.67
2019-05-06T02:59:24.230Z,4.70
2019-05-06T03:01:53.881Z,5.00
2019-05-06T03:04:23.625Z,4.67
2019-05-06T03:06:53.388Z,4.95
2019-05-06T03:09:25.265Z,5.17
2019-05-06T03:11:54.295Z,5.30
2019-05-06T03:14:23.602Z,5.95
2019-05-06T03:16:53.679Z,4.80
2019-05-06T03:19:24.167Z,5.17
2019-05-06T03:22:13.344Z,5.30
2019-05-06T03:24:45.613Z,4.95
2019-05-06T03:27:14.953Z,4.50
2019-05-06T03:29:44.478Z,5.53
2019-05-06T03:32:16.469Z,5.70
2019-05-06T03:35:01.258Z,5.20
2019-05-06T03:37:16.896Z,5.10
2019-05-06T03:39:44.819Z,5.20
2019-05-06T03:42:16.321Z,5.40
2019-05-06T03:44:45.744Z,5.47
2019-05-06T03:47:25.039Z,5.33
2019-05-06T03:49:54.800Z,6.62
2019-05-06T03:52:24.003Z,5.83
2019-05-06T03:54:53.911Z,7.30
2019-05-06T03:57:23.490Z,6.30
2019-05-06T03:59:53.043Z,6.70
2019-05-06T04:02:24.113Z,7.12
2019-05-06T04:04:55.895Z,7.83
2019-05-06T04:07:23.548Z,7.65
2019-05-06T04:09:53.437Z,6.95
2019-05-06T04:12:23.484Z,6.67
2019-05-06T04:14:53.889Z,6.33
2019-05-06T04:17:37.064Z,5.80
2019-05-06T04:20:16.505Z,5.85
2019-05-06T04:22:53.253Z,5.50
2019-05-06T04:25:43.631Z,5.50
2019-05-06T04:28:14.103Z,5.22
2019-05-06T04:30:43.250Z,4.62
2019-05-06T04:33:16.464Z,5.37
2019-05-06T04:35:43.156Z,4.78
2019-05-06T04:38:13.905Z,6.03
2019-05-06T04:40:43.993Z,6.08
2019-05-06T04:43:13.615Z,5.53
2019-05-06T04:45:43.318Z,4.97
2019-05-06T04:48:14.234Z,4.62
2019-05-06T04:50:44.398Z,5.08
2019-05-06T04:53:13.826Z,5.13
2019-05-06T04:55:43.908Z,5.33
2019-05-06T04:58:14.013Z,5.30
2019-05-06T05:00:44.474Z,5.72
2019-05-06T05:03:13.981Z,6.22
2019-05-06T05:05:44.884Z,6.42
2019-05-06T05:08:14.743Z,4.97
2019-05-06T05:10:53.045Z,5.62
2019-05-06T05:13:29.391Z,5.20
2019-05-06T05:16:08.903Z,5.40
2019-05-06T05:18:39.167Z,7.03
2019-05-06T05:21:08.045Z,5.28
2019-05-06T05:23:36.822Z,5.37
2019-05-06T05:26:06.238Z,5.03
2019-05-06T05:28:35.038Z,5.75
2019-05-06T05:31:03.832Z,16.77
2019-05-06T05:33:32.848Z,31.20
2019-05-06T05:36:02.077Z,13.70
2019-05-06T05:38:32.146Z,6.53
2019-05-06T05:41:03.038Z,5.05
2019-05-06T05:43:33.332Z,7.12
2019-05-06T05:46:03.024Z,6.12
2019-05-06T05:48:37.487Z,5.62
2019-05-06T05:51:06.232Z,5.78
2019-05-06T05:53:35.003Z,6.42
2019-05-06T05:56:04.665Z,6.65
2019-05-06T05:58:33.495Z,6.37
2019-05-06T06:01:04.188Z,8.05
2019-05-06T06:03:32.710Z,5.92
2019-05-06T06:06:03.068Z,6.35
2019-05-06T06:08:32.379Z,5.75
2019-05-06T06:11:05.401Z,5.80
2019-05-06T06:13:34.108Z,5.15
2019-05-06T06:16:23.239Z,8.07
2019-05-06T06:19:08.491Z,5.95
2019-05-06T06:21:44.484Z,4.90
2019-05-06T06:24:14.776Z,5.17
2019-05-06T06:26:43.496Z,5.22
2019-05-06T06:29:12.586Z,6.33
2019-05-06T06:31:46.110Z,5.37
2019-05-06T06:34:22.581Z,6.72
2019-05-06T06:36:56.063Z,6.47
2019-05-06T06:39:32.541Z,6.62
2019-05-06T06:42:02.769Z,5.20
2019-05-06T06:44:33.099Z,5.40
2019-05-06T06:47:02.200Z,4.95
2019-05-06T06:49:32.756Z,4.90
2019-05-06T06:52:02.723Z,5.12
2019-05-06T06:54:32.313Z,5.05
2019-05-06T06:57:17.337Z,5.25
2019-05-06T06:59:48.571Z,4.55
2019-05-06T07:02:28.052Z,4.78
2019-05-06T07:04:58.505Z,4.87
2019-05-06T07:07:40.389Z,4.35
2019-05-06T07:09:59.155Z,4.72
2019-05-06T07:12:27.957Z,5.03
2019-05-06T07:15:02.966Z,5.28
2019-05-06T07:17:32.824Z,4.83
2019-05-06T07:20:06.259Z,4.03
2019-05-06T07:22:37.925Z,4.22
2019-05-06T07:25:08.144Z,4.08
2019-05-06T07:27:36.924Z,3.47
2019-05-06T07:30:07.606Z,4.40
2019-05-06T07:32:36.360Z,4.47
2019-05-06T07:35:06.313Z,3.58
2019-05-06T07:37:35.156Z,3.52
2019-05-06T07:40:04.947Z,4.15
2019-05-06T07:42:42.551Z,2.98
2019-05-06T07:45:12.808Z,3.37
2019-05-06T07:47:49.692Z,3.47
2019-05-06T07:50:18.414Z,4.03
2019-05-06T07:53:05.175Z,3.58
2019-05-06T07:55:33.896Z,3.12
2019-05-06T07:58:03.035Z,3.33
2019-05-06T08:00:32.728Z,3.98
2019-05-06T08:03:02.560Z,4.42
2019-05-06T08:05:32.425Z,3.27
2019-05-06T08:08:03.477Z,3.95
2019-05-06T08:10:33.158Z,4.40
2019-05-06T08:13:02.839Z,5.03
2019-05-06T08:15:33.060Z,4.28
2019-05-06T08:18:03.366Z,4.03
2019-05-06T08:20:38.137Z,4.15
2019-05-06T08:23:24.770Z,3.90
2019-05-06T08:26:08.829Z,4.20
2019-05-06T08:28:37.566Z,4.33
2019-05-06T08:30:55.106Z,4.22
2019-05-06T08:33:23.810Z,4.28
2019-05-06T08:35:54.551Z,3.60
2019-05-06T08:38:22.951Z,4.22
2019-05-06T08:40:52.605Z,3.92
2019-05-06T08:43:22.045Z,4.42
2019-05-06T08:45:52.855Z,4.20
2019-05-06T08:48:22.142Z,4.45
2019-05-06T08:50:55.167Z,3.75
2019-05-06T08:53:25.513Z,3.37
2019-05-06T08:55:55.680Z,3.62
2019-05-06T08:58:25.954Z,3.92
2019-05-06T09:00:58.817Z,2.85
2019-05-06T09:03:27.618Z,3.00
2019-05-06T09:05:56.439Z,2.52
2019-05-06T09:08:25.355Z,2.95
2019-05-06T09:10:54.189Z,2.63
2019-05-06T09:13:23.309Z,2.62
2019-05-06T09:15:52.652Z,2.37
2019-05-06T09:18:23.900Z,2.33
2019-05-06T09:20:53.620Z,2.98
2019-05-06T09:23:22.776Z,2.47
2019-05-06T09:25:53.080Z,2.87
2019-05-06T09:28:33.930Z,2.95
2019-05-06T09:31:09.628Z,2.95
2019-05-06T09:33:42.526Z,2.95
2019-05-06T09:36:12.754Z,3.15
2019-05-06T09:38:42.456Z,2.67
2019-05-06T09:41:12.442Z,3.25
2019-05-06T09:43:43.401Z,2.50
2019-05-06T09:46:12.911Z,2.90
2019-05-06T09:48:43.468Z,2.83
2019-05-06T09:51:13.063Z,4.23
2019-05-06T09:54:04.086Z,3.60
2019-05-06T09:56:45.536Z,3.27
2019-05-06T09:59:14.327Z,3.10
2019-05-06T10:01:44.901Z,3.02
2019-05-06T10:04:13.633Z,2.85
2019-05-06T10:06:55.712Z,3.00
2019-05-06T10:09:15.920Z,2.60
2019-05-06T10:11:43.997Z,2.87
2019-05-06T10:14:13.070Z,3.10
2019-05-06T10:16:42.983Z,2.75
2019-05-06T10:19:13.171Z,3.10
2019-05-06T10:21:43.147Z,2.67
2019-05-06T10:24:12.031Z,2.77
2019-05-06T10:26:47.555Z,3.33
2019-05-06T10:29:26.979Z,3.02
2019-05-06T10:32:12.420Z,2.95
2019-05-06T10:34:43.307Z,2.75
2019-05-06T10:37:30.172Z,2.47
2019-05-06T10:40:19.683Z,3.37
2019-05-06T10:42:52.385Z,2.70
2019-05-06T10:45:28.698Z,2.90
2019-05-06T10:47:57.496Z,2.67
2019-05-06T10:50:27.515Z,2.65
2019-05-06T10:53:03.664Z,3.10
2019-05-06T10:55:32.644Z,2.80
2019-05-06T10:58:02.630Z,2.80
2019-05-06T11:00:33.141Z,3.20
2019-05-06T11:03:06.389Z,2.95
2019-05-06T11:05:35.100Z,2.83
2019-05-06T11:08:04.817Z,2.77
2019-05-06T11:10:40.782Z,2.42
2019-05-06T11:13:04.834Z,2.92
2019-05-06T11:15:33.608Z,2.80
2019-05-06T11:18:04.775Z,2.83
2019-05-06T11:20:34.017Z,3.22
2019-05-06T11:23:03.637Z,4.35
2019-05-06T11:25:32.766Z,3.40
2019-05-06T11:28:02.912Z,3.00
2019-05-06T11:30:39.679Z,3.60
2019-05-06T11:33:27.113Z,2.93
2019-05-06T11:36:04.628Z,3.00
2019-05-06T11:38:33.387Z,2.45
2019-05-06T11:41:02.128Z,2.83
2019-05-06T11:43:32.436Z,2.70
2019-05-06T11:46:01.332Z,2.35
2019-05-06T11:48:30.049Z,3.40
2019-05-06T11:51:00.482Z,2.72
2019-05-06T11:53:29.200Z,2.77
2019-05-06T11:55:57.906Z,3.12
2019-05-06T11:58:42.491Z,2.65
2019-05-06T12:01:28.100Z,3.20
2019-05-06T12:03:57.816Z,2.87
2019-05-06T12:06:26.530Z,2.77
2019-05-06T12:08:55.334Z,2.75
2019-05-06T12:11:24.090Z,3.35
2019-05-06T12:13:53.329Z,2.98
2019-05-06T12:16:26.006Z,2.55
2019-05-06T12:18:53.126Z,2.70
2019-05-06T12:21:23.189Z,2.52
2019-05-06T12:23:53.791Z,3.00
2019-05-06T12:26:22.818Z,2.67
2019-05-06T12:28:53.173Z,3.00
2019-05-06T12:31:23.332Z,3.10
2019-05-06T12:33:53.319Z,3.17
2019-05-06T12:36:23.040Z,3.15
2019-05-06T12:39:09.899Z,2.90
2019-05-06T12:41:42.881Z,3.80
2019-05-06T12:44:13.160Z,5.37
2019-05-06T12:46:45.352Z,4.17
2019-05-06T12:49:14.169Z,3.13
2019-05-06T12:51:43.438Z,2.80
2019-05-06T12:54:12.876Z,3.00
2019-05-06T12:56:42.513Z,2.65
2019-05-06T12:59:12.750Z,3.10
2019-05-06T13:01:45.317Z,3.05
2019-05-06T13:04:13.546Z,3.17
2019-05-06T13:06:46.146Z,2.90
2019-05-06T13:09:13.101Z,3.40
2019-05-06T13:11:43.076Z,3.40
2019-05-06T13:14:12.864Z,3.17
2019-05-06T13:16:42.558Z,3.62
2019-05-06T13:19:12.150Z,3.65
2019-05-06T13:21:42.275Z,3.83
2019-05-06T13:24:12.122Z,3.60
2019-05-06T13:26:43.106Z,3.33
2019-05-06T13:29:13.327Z,3.22
2019-05-06T13:31:43.479Z,3.40
2019-05-06T13:34:17.120Z,3.65
2019-05-06T13:36:46.159Z,3.50
2019-05-06T13:39:15.538Z,3.33
2019-05-06T13:41:44.297Z,3.30
2019-05-06T13:44:14.316Z,3.47
2019-05-06T13:46:47.640Z,3.75
2019-05-06T13:49:29.800Z,3.85
2019-05-06T13:52:04.494Z,3.58
2019-05-06T13:54:33.749Z,3.33
2019-05-06T13:57:02.980Z,3.62
2019-05-06T13:59:34.726Z,3.10
2019-05-06T14:02:07.154Z,3.22
2019-05-06T14:04:34.558Z,3.72
2019-05-06T14:07:06.436Z,3.92
2019-05-06T14:09:39.921Z,4.20
2019-05-06T14:12:05.404Z,4.04
2019-05-06T14:14:34.185Z,3.45
2019-05-06T14:17:02.912Z,3.05
2019-05-06T14:19:33.237Z,3.77
2019-05-06T14:22:02.962Z,3.98
2019-05-06T14:24:32.848Z,3.45
2019-05-06T14:27:06.259Z,4.08
2019-05-06T14:29:53.289Z,2.92
2019-05-06T14:32:23.654Z,3.35
2019-05-06T14:34:53.164Z,4.97
2019-05-06T14:37:22.710Z,4.00
2019-05-06T14:39:58.879Z,3.72
2019-05-06T14:42:23.738Z,3.23
2019-05-06T14:44:52.739Z,3.40
2019-05-06T14:47:23.392Z,3.62
2019-05-06T14:49:53.106Z,2.85
2019-05-06T14:52:22.887Z,3.53
2019-05-06T14:54:53.868Z,3.65
2019-05-06T14:57:23.456Z,3.42
2019-05-06T14:59:55.503Z,3.52
2019-05-06T15:02:26.216Z,3.02
2019-05-06T15:04:55.254Z,3.47
2019-05-06T15:07:24.030Z,3.42
2019-05-06T15:10:07.653Z,3.85
2019-05-06T15:12:23.489Z,3.58
2019-05-06T15:14:52.875Z,3.70
2019-05-06T15:17:23.012Z,3.57
2019-05-06T15:19:52.790Z,3.15
2019-05-06T15:22:22.745Z,3.95
2019-05-06T15:24:53.706Z,3.72
2019-05-06T15:27:23.017Z,3.83
2019-05-06T15:29:54.832Z,4.03
2019-05-06T15:32:25.108Z,3.67
2019-05-06T15:34:56.332Z,3.50
2019-05-06T15:37:26.787Z,3.53
2019-05-06T15:39:56.079Z,3.85
2019-05-06T15:42:24.824Z,3.50
2019-05-06T15:44:53.592Z,3.58
2019-05-06T15:47:22.797Z,3.40
2019-05-06T15:49:52.795Z,2.92
2019-05-06T15:52:23.451Z,2.70
2019-05-06T15:54:52.675Z,2.95
2019-05-06T15:57:22.941Z,2.58
2019-05-06T15:59:53.158Z,2.85
2019-05-06T16:02:23.361Z,2.42
2019-05-06T16:04:52.539Z,2.22
2019-05-06T16:07:25.340Z,2.30
2019-05-06T16:09:54.994Z,2.47
2019-05-06T16:12:23.159Z,2.70
2019-05-06T16:14:53.059Z,1.82
2019-05-06T16:17:23.760Z,2.60
2019-05-06T16:19:52.699Z,2.50
2019-05-06T16:22:22.579Z,2.08
2019-05-06T16:25:02.737Z,1.87
2019-05-06T16:27:31.644Z,2.10
2019-05-06T16:30:03.427Z,2.92
2019-05-06T16:32:33.256Z,2.52
2019-05-06T16:35:01.789Z,3.67
2019-05-06T16:37:32.857Z,2.55
2019-05-06T16:40:02.833Z,22.93
2019-05-06T16:42:32.149Z,6.30
2019-05-06T16:45:06.876Z,3.90
2019-05-06T16:47:38.552Z,2.58
2019-05-06T16:50:13.312Z,2.27
2019-05-06T16:52:45.073Z,2.27
2019-05-06T16:55:14.228Z,5.53
2019-05-06T16:57:44.732Z,8.28
2019-05-06T17:00:15.041Z,2.55
2019-05-06T17:02:55.940Z,6.80
2019-05-06T17:05:17.611Z,4.58
2019-05-06T17:07:47.533Z,3.15
2019-05-06T17:10:16.243Z,3.20
2019-05-06T17:12:45.227Z,4.03
2019-05-06T17:15:14.176Z,3.50
2019-05-06T17:17:46.759Z,2.50
2019-05-06T17:20:13.512Z,2.37
2019-05-06T17:22:42.396Z,3.37
2019-05-06T17:25:11.258Z,2.92
2019-05-06T17:27:43.297Z,2.60
2019-05-06T17:30:18.059Z,2.83
2019-05-06T17:32:48.381Z,2.72
2019-05-06T17:35:17.138Z,2.50
2019-05-06T17:37:53.400Z,3.08
2019-05-06T17:40:23.251Z,3.17
2019-05-06T17:42:53.465Z,3.00
2019-05-06T17:45:43.017Z,3.52
2019-05-06T17:48:13.821Z,3.77
2019-05-06T17:50:44.387Z,4.17
2019-05-06T17:53:14.094Z,4.60
2019-05-06T17:55:43.342Z,3.27
2019-05-06T17:58:13.014Z,3.22
2019-05-06T18:00:42.935Z,7.17
2019-05-06T18:03:11.896Z,5.53
2019-05-06T18:05:42.201Z,3.92
2019-05-06T18:08:12.855Z,3.90
2019-05-06T18:10:42.675Z,3.22
2019-05-06T18:13:12.514Z,3.37
2019-05-06T18:15:43.101Z,4.17
2019-05-06T18:18:13.014Z,4.10
2019-05-06T18:20:42.736Z,5.47
2019-05-06T18:23:12.933Z,4.35
2019-05-06T18:25:43.111Z,7.43
2019-05-06T18:28:12.323Z,3.22
2019-05-06T18:30:41.227Z,7.90
2019-05-06T18:33:10.095Z,9.33
2019-05-06T18:35:38.836Z,8.93
2019-05-06T18:38:07.606Z,7.15
2019-05-06T18:40:36.460Z,5.87
2019-05-06T18:43:05.270Z,6.47
2019-05-06T18:45:35.156Z,4.80
2019-05-06T18:48:03.972Z,4.30
2019-05-06T18:50:32.726Z,5.80
2019-05-06T18:53:02.458Z,6.87
2019-05-06T18:55:33.045Z,6.33
2019-05-06T18:58:02.313Z,6.87
2019-05-06T19:00:31.995Z,6.33
2019-05-06T19:03:02.625Z,6.23
2019-05-06T19:05:34.890Z,5.30
2019-05-06T19:08:05.428Z,4.17
2019-05-06T19:10:34.447Z,4.22
2019-05-06T19:13:03.202Z,4.80
2019-05-06T19:15:33.683Z,5.50
2019-05-06T19:18:02.495Z,4.55
2019-05-06T19:20:33.876Z,4.67
2019-05-06T19:23:02.429Z,5.12
2019-05-06T19:25:33.908Z,4.95
2019-05-06T19:28:02.265Z,3.65
2019-05-06T19:30:32.356Z,4.05
2019-05-06T19:33:02.935Z,4.40
2019-05-06T19:35:36.561Z,4.08
2019-05-06T19:38:05.047Z,4.15
2019-05-06T19:40:33.251Z,4.30
2019-05-06T19:43:03.001Z,4.08
2019-05-06T19:45:34.387Z,4.58
2019-05-06T19:48:02.892Z,3.92
2019-05-06T19:50:33.049Z,5.22
2019-05-06T19:53:01.944Z,6.85
2019-05-06T19:55:30.670Z,9.85
2019-05-06T19:57:59.709Z,5.25
2019-05-06T20:00:28.589Z,3.85
2019-05-06T20:02:57.528Z,4.20
2019-05-06T20:05:30.530Z,4.72
2019-05-06T20:08:06.559Z,3.62
2019-05-06T20:10:42.788Z,4.35
2019-05-06T20:13:13.486Z,5.15
2019-05-06T20:15:42.831Z,5.08
2019-05-06T20:18:11.615Z,4.65
2019-05-06T20:20:42.392Z,4.42
2019-05-06T20:23:12.560Z,5.28
2019-05-06T20:25:42.587Z,6.30
2019-05-06T20:28:13.123Z,5.37
2019-05-06T20:30:42.361Z,5.17
2019-05-06T20:33:12.515Z,5.75
2019-05-06T20:35:43.243Z,6.90
2019-05-06T20:38:12.335Z,6.72
2019-05-06T20:40:43.076Z,9.85
2019-05-06T20:43:17.508Z,11.93
2019-05-06T20:45:42.898Z,8.30
2019-05-06T20:48:12.902Z,6.15
2019-05-06T20:50:42.866Z,6.58
2019-05-06T20:53:12.225Z,5.30
2019-05-06T20:55:43.122Z,5.78
2019-05-06T20:58:12.346Z,6.75
2019-05-06T21:00:42.978Z,5.95
2019-05-06T21:03:12.255Z,7.53
2019-05-06T21:05:43.203Z,7.92
2019-05-06T21:08:12.927Z,5.70
2019-05-06T21:10:42.585Z,5.37
2019-05-06T21:13:13.407Z,6.33
2019-05-06T21:15:43.271Z,5.27
2019-05-06T21:18:12.450Z,5.20
2019-05-06T21:20:43.367Z,6.50
2019-05-06T21:23:11.815Z,5.87
2019-05-06T21:25:42.827Z,5.20
2019-05-06T21:28:12.162Z,7.30
2019-05-06T21:30:42.863Z,6.03
2019-05-06T21:33:12.465Z,5.50
2019-05-06T21:35:42.367Z,6.08
2019-05-06T21:38:12.145Z,5.83
2019-05-06T21:40:43.168Z,6.83
2019-05-06T21:43:13.003Z,6.85
2019-05-06T21:45:42.946Z,10.23
2019-05-06T21:48:13.623Z,24.67
2019-05-06T21:50:42.762Z,11.03
2019-05-06T21:53:14.767Z,7.83
2019-05-06T21:55:43.333Z,7.55
2019-05-06T21:58:12.543Z,5.45
2019-05-06T22:00:43.517Z,5.92
2019-05-06T22:03:13.392Z,6.03
2019-05-06T22:05:42.652Z,6.20
2019-05-06T22:08:12.959Z,6.33
2019-05-06T22:10:42.251Z,6.12
2019-05-06T22:13:14.236Z,7.25
2019-05-06T22:15:42.342Z,6.45
2019-05-06T22:18:12.514Z,7.05
2019-05-06T22:20:59.547Z,8.00
2019-05-06T22:23:29.979Z,5.75
2019-05-06T22:26:11.314Z,5.60
2019-05-06T22:28:31.903Z,6.05
2019-05-06T22:31:02.896Z,5.65
2019-05-06T22:33:31.833Z,5.92
2019-05-06T22:36:02.235Z,6.13
2019-05-06T22:38:31.229Z,7.20
2019-05-06T22:40:59.954Z,6.87
2019-05-06T22:43:28.951Z,6.22
2019-05-06T22:45:57.676Z,7.20
2019-05-06T22:48:26.588Z,6.45
2019-05-06T22:50:55.360Z,6.10
2019-05-06T22:53:24.878Z,6.10
2019-05-06T22:55:55.182Z,6.15
2019-05-06T22:58:24.158Z,6.37
2019-05-06T23:00:54.381Z,5.70
2019-05-06T23:03:31.719Z,4.67
2019-05-06T23:06:02.534Z,5.40
2019-05-06T23:08:32.474Z,4.85
2019-05-06T23:11:01.326Z,5.83
2019-05-06T23:13:30.104Z,4.78
2019-05-06T23:15:59.027Z,4.83
2019-05-06T23:18:27.742Z,4.53
2019-05-06T23:20:56.527Z,4.47
2019-05-06T23:23:25.384Z,4.33
2019-05-06T23:26:13.045Z,3.87
2019-05-06T23:28:43.655Z,4.47
2019-05-06T23:31:12.338Z,4.47
2019-05-06T23:33:42.858Z,4.62
2019-05-06T23:36:12.107Z,4.55
2019-05-06T23:39:17.189Z,4.28
2019-05-06T23:42:22.794Z,3.98
2019-05-06T23:45:27.877Z,4.62
2019-05-06T23:48:32.771Z,4.80
2019-05-06T23:51:37.703Z,5.12
2019-05-06T23:54:42.858Z,5.15
2019-05-06T23:57:10.726Z,5.05
2019-05-06T23:59:39.467Z,4.83
